Flight Track Log - Related Links

Times and Time Zones

All times are in EDT time to prevent confusion due to time zone crossing. See the EJA941 flight status page for this flight to view local times or setup timezone preferences in your user account.

Time Position Orientation Groundspeed Altitude Reporting Facility
EDT Latitude Longitude Course Direction KTS MPH feet Rate Location/Type
Mon 05:10:19 PM 40.8333 -74.1000 252° West 185 213 1,500  Level New York TRACON
Mon 05:11:19 PM 40.8167 -74.1667 252° West 209 241 1,900 1,700 Climbing New York TRACON
Mon 05:12:19 PM 40.8167 -74.2500 270° West 222 255 4,900 3,050 Climbing New York TRACON
Mon 05:13:19 PM 40.8000 -74.3500 258° West 270 311 8,000 3,050 Climbing New York TRACON
Mon 05:14:19 PM 40.8000 -74.4500 270° West 273 314 11,000 2,350 Climbing New York TRACON
Mon 05:15:19 PM 40.8000 -74.5667 270° West 317 365 12,700 1,804 Climbing New York TRACON
Mon 05:16:52 PM 40.8056 -74.7297 273° West 349 402 15,600 2,026 Climbing New York Center
Mon 05:17:53 PM 40.8033 -74.8611 269° West 338 389 17,900 2,067 Climbing New York Center
Mon 05:18:51 PM 40.8056 -74.9711 272° West 338 389 19,700 1,932 Climbing New York Center
Mon 05:19:51 PM 40.7706 -75.0811 247° West 333 383 21,700 1,770 Climbing New York Center
Mon 05:20:53 PM 40.7022 -75.1783 227° Southwest 330 380 23,300 1,525 Climbing New York Center
Mon 05:21:53 PM 40.6378 -75.2833 231° Southwest 351 404 24,800 1,488 Climbing New York Center
Mon 05:22:54 PM 40.5772 -75.3997 236° Southwest 376 433 26,300 1,513 Climbing New York Center
Mon 05:23:52 PM 40.5203 -75.5186 238° Southwest 390 449 27,800 1,525 Climbing New York Center
Mon 05:24:52 PM 40.4633 -75.6403 238° Southwest 395 455 29,300 1,488 Climbing New York Center
Mon 05:25:53 PM 40.4161 -75.7706 245° Southwest 395 455 30,800 1,339 Climbing New York Center
Mon 05:26:53 PM 40.3667 -75.9031 244° Southwest 400 460 32,000 1,220 Climbing New York Center
Mon 05:27:51 PM 40.3167 -76.0411 245° Southwest 407 468 33,200 1,311 Climbing New York Center
Mon 05:28:52 PM 40.2769 -76.1850 250° West 420 483 34,600 1,388 Climbing New York Center
Mon 05:29:52 PM 40.2511 -76.3353 257° West 427 491 36,000 1,513 Climbing New York Center
Mon 05:30:51 PM 40.2458 -76.4900 267° West 422 486 37,600 1,700 Climbing New York Center
Mon 05:31:52 PM 40.2408 -76.6364 267° West 422 486 39,400 1,200 Climbing New York Center
Mon 05:32:51 PM 40.2353 -76.7856 267° West 417 480 40,000 300 Climbing New York Center
Mon 05:33:52 PM 40.2292 -76.9453 267° West 423 487 40,000  Level New York Center
Mon 05:34:52 PM 40.2222 -77.1161 267° West 429 494 40,000  Level New York Center
Mon 05:35:53 PM 40.2183 -77.2653 268° West 442 509 40,000  Level New York Center
Mon 05:36:54 PM 40.2139 -77.4200 268° West 437 503 40,000  Level New York Center
Mon 05:38:57 PM 40.1992 -77.7725 267° West 443 510 40,000  Level Cleveland Center
Mon 05:39:57 PM 40.1886 -77.9358 265° West 443 510 40,000  Level Cleveland Center
Mon 05:40:57 PM 40.1794 -78.0911 266° West 443 510 40,000  Level Cleveland Center
Mon 05:41:57 PM 40.1725 -78.2464 267° West 443 510 40,000  Level Cleveland Center
Mon 05:42:57 PM 40.1653 -78.4042 267° West 443 510 40,000  Level Cleveland Center
Mon 05:43:57 PM 40.1578 -78.5619 266° West 443 510 40,000  Level Cleveland Center
Mon 05:44:57 PM 40.1478 -78.7197 265° West 443 510 40,000  Level Cleveland Center
Mon 05:45:57 PM 40.1400 -78.8775 266° West 443 510 40,000  Level Cleveland Center
Mon 05:46:57 PM 40.1358 -79.0378 268° West 443 510 40,000  Level Cleveland Center
Mon 05:47:57 PM 40.1422 -79.1953 273° West 443 510 40,000  Level Cleveland Center
Mon 05:48:57 PM 40.1458 -79.3364 272° West 443 510 40,000  Level Cleveland Center
Mon 05:49:57 PM 40.1494 -79.4967 272° West 438 504 40,000  Level Cleveland Center
Mon 05:50:57 PM 40.1508 -79.6569 271° West 438 504 40,000  Level Cleveland Center
Mon 05:51:57 PM 40.1522 -79.8172 271° West 438 504 40,000  Level Cleveland Center
Mon 05:52:57 PM 40.1531 -79.9908 270° West 438 504 40,000  Level Cleveland Center
Mon 05:53:57 PM 40.1539 -80.1511 270° West 438 504 40,000  Level Cleveland Center
Mon 05:54:58 PM 40.1564 -80.3086 271° West 438 504 40,000  Level Cleveland Center
Mon 05:55:57 PM 40.1608 -80.4689 272° West 438 504 40,000  Level Cleveland Center
Mon 05:56:57 PM 40.1608 -80.6267 270° West 438 504 40,000  Level Cleveland Center
Mon 05:57:58 PM 40.1608 -80.7842 270° West 438 504 40,000  Level Cleveland Center
Mon 05:58:57 PM 40.1625 -80.9444 271° West 438 504 40,000 -454 Level Cleveland Center
Mon 05:59:57 PM 40.1619 -81.0992 270° West 438 504 39,100 -1,385 Descending Cleveland Center
Mon 06:00:41 PM 40.1589 -81.2156 268° West 433 498 37,600 -1,981 Descending Indianapolis Center
Mon 06:01:43 PM 40.1592 -81.3722 270° West 428 493 35,600 -1,756 Descending Indianapolis Center
Mon 06:02:44 PM 40.1583 -81.5397 270° West 441 507 34,000 -780 Descending Indianapolis Center
Mon 06:03:46 PM 40.1578 -81.7128 270° West 459 528 34,000 -732 Level Indianapolis Center
Mon 06:04:47 PM 40.1572 -81.8800 270° West 460 529 32,500 -1,816 Descending Indianapolis Center
Mon 06:06:51 PM 40.1553 -82.2244 270° West 472 543 28,400 -1,946 Descending Indianapolis Center
Mon 06:07:52 PM 40.1533 -82.3911 269° West 459 528 26,500 -1,756 Descending Indianapolis Center
Mon 06:08:54 PM 40.1514 -82.5531 269° West 443 510 24,800 -1,512 Descending Indianapolis Center
Mon 06:09:55 PM 40.1075 -82.6953 248° West 428 493 23,400 -1,561 Descending Indianapolis Center
Mon 06:10:57 PM 40.0494 -82.8319 241° Southwest 426 490 21,600 -1,645 Descending Indianapolis Center
Mon 06:11:59 PM 39.9911 -82.9747 242° Southwest 438 504 20,000 -1,366 Descending Indianapolis Center
Mon 06:13:00 PM 39.9272 -83.1258 241° Southwest 433 498 18,800 -1,663 Descending Indianapolis Center
Mon 06:14:00 PM 39.8725 -83.2489 240° Southwest  Level FlightAware Approximate
Mon 06:15:03 PM 39.8139 -83.3917 240° Southwest 420 483 14,900  Level Indianapolis Center
Mon 06:15:46 PM 39.7708 -83.4939 241° Southwest 400 460 13,200 -2,081 Descending Indianapolis Center
Mon 06:17:07 PM 39.7044 -83.6344 238° Southwest 389 448 10,600 -1,721 Descending Indianapolis Center
Mon 06:17:48 PM 39.6506 -83.7078 226° Southwest 306 352 9,700 -1,059 Descending Indianapolis Center
Mon 06:18:49 PM 39.5969 -83.7775 225° Southwest 260 299 8,800 -755 Descending Indianapolis Center
Mon 06:20:11 PM 39.5239 -83.8714 225° Southwest 291 335 7,900 -708 Descending Indianapolis Center
Mon 06:21:13 PM 39.4633 -83.9492 225° Southwest 286 329 7,100 -927 Descending Indianapolis Center
Mon 06:22:14 PM 39.4208 -84.0089 227° Southwest 280 322 6,000 -1,073 Descending Indianapolis Center
Mon 06:23:16 PM 39.3606 -84.0853 224° Southwest 270 311 4,900 -968 Descending Indianapolis Center
Mon 06:24:18 PM 39.3189 -84.1561 233° Southwest 257 296 4,000 -439 Descending Indianapolis Center
Mon 06:25:19 PM 39.2817 -84.2347 239° Southwest 254 292 4,000 -518 Level Indianapolis Center
Mon 06:27:35 PM 39.2000 -84.3667 231° Southwest 180 207 2,300 -772 Descending Cincinnati TRACON
Mon 06:28:41 PM 39.1500 -84.3833 194° South 147 169 1,400 -818 Descending Cincinnati TRACON
Mon 06:30:00 PM 39.1033 -84.4186 227° Southwest  Level Estimated
Mon 06:37:00 PM 39.1000 -84.4167 57° Northeast  Level FlightAware Approximate

Login

Don't have an account? Register now (free) for customized features, flight alerts, and more!